createdAt,value
2018-10-12T00:01:47.185Z,24.87
2018-10-12T00:04:14.531Z,21.80
2018-10-12T00:06:41.895Z,24.17
2018-10-12T00:09:10.498Z,22.80
2018-10-12T00:11:38.071Z,23.87
2018-10-12T00:14:05.391Z,23.33
2018-10-12T00:16:32.709Z,24.07
2018-10-12T00:19:00.021Z,24.97
2018-10-12T00:21:27.353Z,23.83
2018-10-12T00:23:54.660Z,23.33
2018-10-12T00:26:22.050Z,23.80
2018-10-12T00:28:49.463Z,23.43
2018-10-12T00:31:16.787Z,23.83
2018-10-12T00:33:44.173Z,28.10
2018-10-12T00:36:11.492Z,25.13
2018-10-12T00:38:38.814Z,24.10
2018-10-12T00:41:07.100Z,23.07
2018-10-12T00:43:34.374Z,23.73
2018-10-12T00:46:01.755Z,24.33
2018-10-12T00:48:29.105Z,22.13
2018-10-12T00:50:56.501Z,22.40
2018-10-12T00:53:23.849Z,24.03
2018-10-12T00:55:51.187Z,23.43
2018-10-12T00:58:18.584Z,22.67
2018-10-12T01:00:45.906Z,24.67
2018-10-12T01:03:13.263Z,23.10
2018-10-12T01:05:40.531Z,22.13
2018-10-12T01:08:08.030Z,27.50
2018-10-12T01:10:35.425Z,24.63
2018-10-12T01:13:06.192Z,24.63
2018-10-12T01:15:33.550Z,22.57
2018-10-12T01:18:00.922Z,23.63
2018-10-12T01:20:28.279Z,22.33
2018-10-12T01:22:55.687Z,21.77
2018-10-12T01:25:23.047Z,22.10
2018-10-12T01:27:50.463Z,24.30
2018-10-12T01:30:17.954Z,21.90
2018-10-12T01:33:00.945Z,23.47
2018-10-12T01:35:28.251Z,22.90
2018-10-12T01:37:55.645Z,23.97
2018-10-12T01:42:56.212Z,23.40
2018-10-12T01:45:23.776Z,22.90
2018-10-12T01:47:51.183Z,23.47
2018-10-12T01:50:18.545Z,20.50
2018-10-12T01:52:45.912Z,20.83
2018-10-12T01:55:13.227Z,22.20
2018-10-12T01:57:40.650Z,22.30
2018-10-12T02:00:08.175Z,21.07
2018-10-12T02:02:35.479Z,21.00
2018-10-12T02:05:02.856Z,21.77
2018-10-12T02:07:30.418Z,21.80
2018-10-12T02:09:57.951Z,19.83
2018-10-12T02:12:25.357Z,22.13
2018-10-12T02:14:52.739Z,22.97
2018-10-12T02:17:20.213Z,21.83
2018-10-12T02:19:47.911Z,22.97
2018-10-12T02:22:15.387Z,20.47
2018-10-12T02:24:42.914Z,21.17
2018-10-12T02:27:10.438Z,22.10
2018-10-12T02:29:37.995Z,20.47
2018-10-12T02:35:00.372Z,22.83
2018-10-12T02:37:27.879Z,21.27
2018-10-12T02:39:55.593Z,20.50
2018-10-12T02:42:23.229Z,20.67
2018-10-12T02:44:50.607Z,20.23
2018-10-12T02:47:17.935Z,19.20
2018-10-12T02:49:45.400Z,19.23
2018-10-12T02:52:12.772Z,23.50
2018-10-12T02:54:40.105Z,21.63
2018-10-12T02:57:07.559Z,20.77
2018-10-12T02:59:35.140Z,20.43
2018-10-12T03:02:03.213Z,19.40
2018-10-12T03:04:30.783Z,19.97
2018-10-12T03:06:58.232Z,19.77
2018-10-12T03:09:25.657Z,18.60
2018-10-12T03:11:53.082Z,18.80
2018-10-12T03:14:20.432Z,17.83
2018-10-12T03:16:47.812Z,24.07
2018-10-12T03:19:15.153Z,19.13
2018-10-12T03:21:42.529Z,18.43
2018-10-12T03:24:10.061Z,17.23
2018-10-12T03:26:37.610Z,24.23
2018-10-12T03:29:05.035Z,18.63
2018-10-12T03:31:32.442Z,20.43
2018-10-12T03:34:00.430Z,17.23
2018-10-12T03:36:28.803Z,16.07
2018-10-12T03:38:56.279Z,16.50
2018-10-12T03:41:23.741Z,17.20
2018-10-12T03:43:51.123Z,16.40
2018-10-12T03:46:18.502Z,16.07
2018-10-12T03:48:45.865Z,16.57
2018-10-12T03:51:13.346Z,17.10
2018-10-12T03:53:40.752Z,16.73
2018-10-12T03:56:08.165Z,15.83
2018-10-12T03:58:35.500Z,16.93
2018-10-12T04:01:02.909Z,17.10
2018-10-12T04:03:30.417Z,17.43
2018-10-12T04:05:58.189Z,15.67
2018-10-12T04:08:25.498Z,15.40
2018-10-12T04:10:52.849Z,14.20
2018-10-12T04:13:20.201Z,15.40
2018-10-12T04:15:47.603Z,18.17
2018-10-12T04:18:14.910Z,15.13
2018-10-12T04:20:42.264Z,16.80
2018-10-12T04:23:09.602Z,16.63
2018-10-12T04:25:36.941Z,17.83
2018-10-12T04:28:04.288Z,14.97
2018-10-12T04:30:31.621Z,16.03
2018-10-12T04:33:00.066Z,16.67
2018-10-12T04:35:27.430Z,15.80
2018-10-12T04:37:54.797Z,15.30
2018-10-12T04:40:32.706Z,16.53
2018-10-12T04:43:00.082Z,16.13
2018-10-12T04:45:27.497Z,15.90
2018-10-12T04:47:54.979Z,14.63
2018-10-12T04:50:22.351Z,16.90
2018-10-12T04:52:49.833Z,19.53
2018-10-12T04:55:17.222Z,15.67
2018-10-12T04:57:44.630Z,15.40
2018-10-12T05:00:12.311Z,14.53
2018-10-12T05:02:39.706Z,16.03
2018-10-12T05:05:07.094Z,16.17
2018-10-12T05:07:34.509Z,15.10
2018-10-12T05:10:01.873Z,23.07
2018-10-12T05:12:29.323Z,17.53
2018-10-12T05:15:02.489Z,15.97
2018-10-12T05:17:30.066Z,20.50
2018-10-12T05:19:57.606Z,17.37
2018-10-12T05:22:24.938Z,17.20
2018-10-12T05:24:52.476Z,15.67
2018-10-12T05:27:19.858Z,16.23
2018-10-12T05:29:47.173Z,15.57
2018-10-12T05:32:19.544Z,14.47
2018-10-12T05:34:46.914Z,18.00
2018-10-12T05:37:14.315Z,15.53
2018-10-12T05:39:41.622Z,15.40
2018-10-12T05:42:08.973Z,18.73
2018-10-12T05:44:36.391Z,14.37
2018-10-12T05:47:03.761Z,15.20
2018-10-12T05:54:48.716Z,14.53
2018-10-12T05:57:16.255Z,15.20
2018-10-12T05:59:43.595Z,16.53
2018-10-12T06:02:11.027Z,14.97
2018-10-12T06:04:38.427Z,16.00
2018-10-12T06:07:05.872Z,16.10
2018-10-12T06:09:33.336Z,15.77
2018-10-12T06:12:00.973Z,18.00
2018-10-12T06:14:28.349Z,17.70
2018-10-12T06:16:55.919Z,14.07
2018-10-12T06:19:23.304Z,16.80
2018-10-12T06:21:51.617Z,19.83
2018-10-12T06:24:19.061Z,15.87
2018-10-12T06:26:46.505Z,17.83
2018-10-12T06:29:14.137Z,19.03
2018-10-12T06:31:41.590Z,16.27
2018-10-12T06:34:08.981Z,14.87
2018-10-12T06:36:36.455Z,15.43
2018-10-12T06:39:04.452Z,18.33
2018-10-12T06:41:32.036Z,15.40
2018-10-12T06:43:59.533Z,15.20
2018-10-12T06:46:26.876Z,16.93
2018-10-12T06:48:54.462Z,18.00
2018-10-12T06:51:21.790Z,20.10
2018-10-12T06:53:49.270Z,16.33
2018-10-12T06:56:16.535Z,20.73
2018-10-12T06:58:43.862Z,18.17
2018-10-12T07:01:11.544Z,15.83
2018-10-12T07:03:38.998Z,15.47
2018-10-12T07:06:06.517Z,20.43
2018-10-12T07:08:33.978Z,18.77
2018-10-12T07:11:01.332Z,16.70
2018-10-12T07:13:29.105Z,21.23
2018-10-12T07:15:56.411Z,19.27
2018-10-12T07:18:23.799Z,17.30
2018-10-12T07:20:51.100Z,18.43
2018-10-12T07:23:18.409Z,15.00
2018-10-12T07:25:45.790Z,16.13
2018-10-12T07:28:13.257Z,16.87
2018-10-12T07:30:40.656Z,19.40
2018-10-12T07:33:07.952Z,16.23
2018-10-12T07:35:35.276Z,16.70
2018-10-12T07:38:02.642Z,19.60
2018-10-12T07:40:30.173Z,17.53
2018-10-12T07:42:57.539Z,15.93
2018-10-12T07:45:24.965Z,17.27
2018-10-12T07:47:52.495Z,17.13
2018-10-12T07:50:19.907Z,17.57
2018-10-12T07:52:47.412Z,17.13
2018-10-12T07:55:14.725Z,16.87
2018-10-12T07:57:42.049Z,17.20
2018-10-12T08:00:09.414Z,15.87
2018-10-12T08:02:36.706Z,14.63
2018-10-12T08:05:04.025Z,14.27
2018-10-12T08:07:31.485Z,17.07
2018-10-12T08:09:58.818Z,15.83
2018-10-12T08:12:26.125Z,15.73
2018-10-12T08:14:53.414Z,16.27
2018-10-12T08:17:21.390Z,17.27
2018-10-12T08:19:48.739Z,14.37
2018-10-12T08:22:16.241Z,14.50
2018-10-12T08:24:43.708Z,13.80
2018-10-12T08:27:11.098Z,14.27
2018-10-12T08:29:38.737Z,13.47
2018-10-12T08:32:06.298Z,12.37
2018-10-12T08:34:33.624Z,15.27
2018-10-12T08:37:00.978Z,14.63
2018-10-12T08:39:28.309Z,13.83
2018-10-12T08:41:55.782Z,13.30
2018-10-12T08:44:23.056Z,11.73
2018-10-12T08:46:50.390Z,11.67
2018-10-12T08:49:17.771Z,12.70
2018-10-12T08:51:45.125Z,12.70
2018-10-12T08:54:12.443Z,12.93
2018-10-12T08:56:40.000Z,13.33
2018-10-12T08:59:07.551Z,10.30
2018-10-12T09:01:34.869Z,12.40
2018-10-12T09:04:02.212Z,10.40
2018-10-12T09:06:29.594Z,14.30
2018-10-12T09:08:56.962Z,12.27
2018-10-12T09:11:24.319Z,10.77
2018-10-12T09:13:51.629Z,11.03
2018-10-12T09:16:19.480Z,11.20
2018-10-12T09:18:46.885Z,11.30
2018-10-12T09:21:14.190Z,12.30
2018-10-12T09:23:41.557Z,11.37
2018-10-12T09:26:08.876Z,10.43
2018-10-12T09:28:36.249Z,10.23
2018-10-12T09:31:03.603Z,9.90
2018-10-12T09:33:30.883Z,9.20
2018-10-12T09:35:58.276Z,9.00
2018-10-12T09:38:25.626Z,9.67
2018-10-12T09:40:53.213Z,10.27
2018-10-12T09:43:20.571Z,7.83
2018-10-12T09:45:47.927Z,10.93
2018-10-12T09:48:15.204Z,7.13
2018-10-12T09:50:42.618Z,7.37
2018-10-12T09:53:09.922Z,8.27
2018-10-12T09:55:37.351Z,7.10
2018-10-12T09:58:04.674Z,7.67
2018-10-12T10:00:37.378Z,6.10
2018-10-12T10:03:09.926Z,7.30
2018-10-12T10:05:37.283Z,6.67
2018-10-12T10:08:04.724Z,7.97
2018-10-12T10:10:32.033Z,7.77
2018-10-12T10:12:59.353Z,7.60
2018-10-12T10:15:26.719Z,8.77
2018-10-12T10:17:54.061Z,8.87
2018-10-12T10:20:21.336Z,7.37
2018-10-12T10:22:48.657Z,6.63
2018-10-12T10:25:15.959Z,7.57
2018-10-12T10:27:43.337Z,7.83
2018-10-12T10:30:10.703Z,7.00
2018-10-12T10:32:38.060Z,7.13
2018-10-12T10:35:05.795Z,6.40
2018-10-12T10:37:33.162Z,6.20
2018-10-12T10:40:00.485Z,5.67
2018-10-12T10:42:27.842Z,7.93
2018-10-12T10:44:55.177Z,8.30
2018-10-12T10:47:22.527Z,7.67
2018-10-12T10:49:50.084Z,6.40
2018-10-12T10:52:17.418Z,6.27
2018-10-12T10:54:45.094Z,6.17
2018-10-12T10:57:12.427Z,5.10
2018-10-12T10:59:39.820Z,5.40
2018-10-12T11:02:07.551Z,6.97
2018-10-12T11:04:35.061Z,4.70
2018-10-12T11:07:03.099Z,5.60
2018-10-12T11:09:30.468Z,3.77
2018-10-12T11:11:58.006Z,4.67
2018-10-12T11:14:25.459Z,4.80
2018-10-12T11:16:52.757Z,4.10
2018-10-12T11:19:20.238Z,4.40
2018-10-12T11:21:49.055Z,3.93
2018-10-12T11:24:16.378Z,4.17
2018-10-12T11:26:43.858Z,4.17
2018-10-12T11:29:11.156Z,4.60
2018-10-12T11:31:38.507Z,4.70
2018-10-12T11:34:06.087Z,5.67
2018-10-12T11:36:33.436Z,4.60
2018-10-12T11:39:02.181Z,4.77
2018-10-12T11:41:29.634Z,4.70
2018-10-12T11:43:57.049Z,5.30
2018-10-12T11:46:24.364Z,6.30
2018-10-12T11:48:51.671Z,4.27
2018-10-12T11:51:22.829Z,4.37
2018-10-12T11:53:53.082Z,4.13
2018-10-12T11:56:21.116Z,4.30
2018-10-12T11:58:50.624Z,4.50
2018-10-12T12:01:18.040Z,6.83
2018-10-12T12:03:45.404Z,4.90
2018-10-12T12:06:12.799Z,3.13
2018-10-12T12:08:40.202Z,5.13
2018-10-12T12:11:07.635Z,5.90
2018-10-12T12:13:35.116Z,6.90
2018-10-12T12:16:02.574Z,3.40
2018-10-12T12:18:30.021Z,3.47
2018-10-12T12:20:57.379Z,4.43
2018-10-12T12:23:24.803Z,4.70
2018-10-12T12:25:52.194Z,5.00
2018-10-12T12:28:19.539Z,4.80
2018-10-12T12:30:47.029Z,8.40
2018-10-12T12:33:14.387Z,6.77
2018-10-12T12:35:42.292Z,3.77
2018-10-12T12:38:09.315Z,5.63
2018-10-12T12:40:36.803Z,3.83
2018-10-12T12:43:04.153Z,3.50
2018-10-12T12:45:31.486Z,4.27
2018-10-12T12:47:59.073Z,3.67
2018-10-12T12:50:26.320Z,4.30
2018-10-12T12:52:53.680Z,4.93
2018-10-12T12:55:21.072Z,2.97
2018-10-12T12:57:48.543Z,5.07
2018-10-12T13:00:16.088Z,6.77
2018-10-12T13:02:43.343Z,4.60
2018-10-12T13:05:11.139Z,3.50
2018-10-12T13:07:38.969Z,4.73
2018-10-12T13:10:06.460Z,4.30
2018-10-12T13:12:33.904Z,3.57
2018-10-12T13:15:01.420Z,4.10
2018-10-12T13:17:29.487Z,4.53
2018-10-12T13:19:56.904Z,3.60
2018-10-12T13:22:24.225Z,3.50
2018-10-12T13:24:51.564Z,3.87
2018-10-12T13:27:18.892Z,3.67
2018-10-12T13:29:46.227Z,5.60
2018-10-12T13:32:13.730Z,4.20
2018-10-12T13:34:46.447Z,4.50
2018-10-12T13:37:14.861Z,7.27
2018-10-12T13:39:42.231Z,5.10
2018-10-12T13:42:09.565Z,4.97
2018-10-12T13:44:36.884Z,3.73
2018-10-12T13:47:04.564Z,2.83
2018-10-12T13:49:32.955Z,3.70
2018-10-12T13:52:00.280Z,4.20
2018-10-12T13:54:27.718Z,4.80
2018-10-12T13:56:58.326Z,4.17
2018-10-12T13:59:26.215Z,5.10
2018-10-12T14:01:53.542Z,4.17
2018-10-12T14:04:21.086Z,9.53
2018-10-12T14:06:48.411Z,4.27
2018-10-12T14:09:15.792Z,3.10
2018-10-12T14:11:43.190Z,3.20
2018-10-12T14:14:10.552Z,2.57
2018-10-12T14:16:37.912Z,4.47
2018-10-12T14:19:05.626Z,2.80
2018-10-12T14:21:32.741Z,6.40
2018-10-12T14:24:00.146Z,3.20
2018-10-12T14:26:27.574Z,5.63
2018-10-12T14:28:55.309Z,2.83
2018-10-12T14:31:22.789Z,3.20
2018-10-12T14:33:50.053Z,3.33
2018-10-12T14:36:17.412Z,5.90
2018-10-12T14:38:44.804Z,3.00
2018-10-12T14:41:12.172Z,4.27
2018-10-12T14:43:39.616Z,2.77
2018-10-12T14:46:06.918Z,5.40
2018-10-12T14:48:34.273Z,4.53
2018-10-12T14:51:05.119Z,3.07
2018-10-12T14:53:32.525Z,3.60
2018-10-12T14:55:59.835Z,2.90
2018-10-12T14:58:27.124Z,3.70
2018-10-12T15:00:54.442Z,3.43
2018-10-12T15:03:23.012Z,5.23
2018-10-12T15:05:50.455Z,4.77
2018-10-12T15:08:17.830Z,3.67
2018-10-12T15:10:45.286Z,3.57
2018-10-12T15:13:12.603Z,3.53
2018-10-12T15:15:39.949Z,4.70
2018-10-12T15:18:07.401Z,3.50
2018-10-12T15:20:34.755Z,4.03
2018-10-12T15:23:02.125Z,3.37
2018-10-12T15:25:29.570Z,3.23
2018-10-12T15:27:56.989Z,5.83
2018-10-12T15:30:24.420Z,3.80
2018-10-12T15:32:51.774Z,3.10
2018-10-12T15:35:19.230Z,2.90
2018-10-12T15:37:46.652Z,3.03
2018-10-12T15:40:13.942Z,3.80
2018-10-12T15:42:41.467Z,7.03
2018-10-12T15:45:08.975Z,3.27
2018-10-12T15:47:36.724Z,4.77
2018-10-12T15:50:04.587Z,5.80
2018-10-12T15:52:31.911Z,4.20
2018-10-12T15:54:59.359Z,3.47
2018-10-12T15:57:29.990Z,3.93
2018-10-12T15:59:57.390Z,6.20
2018-10-12T16:02:24.786Z,3.47
2018-10-12T16:04:52.160Z,4.17
2018-10-12T16:07:21.640Z,5.60
2018-10-12T16:09:50.370Z,5.40
2018-10-12T16:12:18.593Z,4.43
2018-10-12T16:14:46.051Z,3.67
2018-10-12T16:17:13.696Z,4.20
2018-10-12T16:19:41.104Z,7.53
2018-10-12T16:22:09.004Z,5.90
2018-10-12T16:24:36.413Z,4.30
2018-10-12T16:27:03.769Z,4.40
2018-10-12T16:29:31.070Z,5.17
2018-10-12T16:31:58.420Z,6.67
2018-10-12T16:34:25.907Z,4.83
2018-10-12T16:36:53.405Z,5.53
2018-10-12T16:39:20.823Z,5.87
2018-10-12T16:41:48.173Z,5.90
2018-10-12T16:44:19.684Z,6.77
2018-10-12T16:46:47.374Z,5.10
2018-10-12T16:49:14.799Z,8.80
2018-10-12T16:51:42.213Z,5.73
2018-10-12T16:54:09.822Z,6.33
2018-10-12T16:56:37.200Z,10.43
2018-10-12T16:59:04.664Z,6.67
2018-10-12T17:01:32.201Z,5.57
2018-10-12T17:03:59.883Z,10.90
2018-10-12T17:06:27.265Z,10.03
2018-10-12T17:08:54.639Z,9.07
2018-10-12T17:11:22.097Z,6.57
2018-10-12T17:13:49.599Z,6.30
2018-10-12T17:16:17.018Z,6.27
2018-10-12T17:18:44.455Z,7.03
2018-10-12T17:21:11.913Z,7.67
2018-10-12T17:23:39.288Z,7.43
2018-10-12T17:26:06.675Z,6.10
2018-10-12T17:28:34.001Z,12.10
2018-10-12T17:31:01.391Z,7.23
2018-10-12T17:33:28.741Z,7.23
2018-10-12T17:35:56.131Z,9.03
2018-10-12T17:38:23.917Z,8.60
2018-10-12T17:40:51.307Z,7.00
2018-10-12T17:43:18.781Z,8.33
2018-10-12T17:45:46.150Z,13.43
2018-10-12T17:48:13.515Z,11.03
2018-10-12T17:50:41.373Z,9.03
2018-10-12T17:53:08.750Z,8.17
2018-10-12T17:55:36.157Z,8.60
2018-10-12T17:58:03.566Z,6.93
2018-10-12T18:00:31.014Z,10.17
2018-10-12T18:02:58.601Z,7.67
2018-10-12T18:05:26.078Z,9.53
2018-10-12T18:07:53.669Z,8.10
2018-10-12T18:10:21.259Z,6.83
2018-10-12T18:12:48.667Z,12.33
2018-10-12T18:15:16.075Z,9.60
2018-10-12T18:17:43.437Z,8.10
2018-10-12T18:20:11.555Z,10.80
2018-10-12T18:22:39.158Z,9.60
2018-10-12T18:25:06.855Z,7.90
2018-10-12T18:27:34.274Z,5.70
2018-10-12T18:30:01.816Z,9.50
2018-10-12T18:32:29.452Z,8.33
2018-10-12T18:34:57.065Z,6.40
2018-10-12T18:37:24.656Z,7.30
2018-10-12T18:39:52.101Z,8.23
2018-10-12T18:42:19.488Z,8.70
2018-10-12T18:44:46.926Z,7.00
2018-10-12T18:47:14.357Z,7.13
2018-10-12T18:49:41.904Z,8.93
2018-10-12T18:52:09.577Z,6.30
2018-10-12T18:54:37.585Z,7.27
2018-10-12T18:57:05.235Z,8.77
2018-10-12T18:59:32.799Z,8.37
2018-10-12T19:02:00.357Z,7.73
2018-10-12T19:04:27.861Z,8.27
2018-10-12T19:06:55.270Z,6.80
2018-10-12T19:09:22.837Z,9.03
2018-10-12T19:11:51.167Z,6.20
2018-10-12T19:14:18.550Z,10.50
2018-10-12T19:16:46.503Z,6.37
2018-10-12T19:19:13.911Z,10.20
2018-10-12T19:21:41.350Z,9.40
2018-10-12T19:24:08.985Z,12.43
2018-10-12T19:26:36.421Z,8.57
2018-10-12T19:29:03.973Z,9.47
2018-10-12T19:31:31.398Z,10.57
2018-10-12T19:33:58.999Z,7.90
2018-10-12T19:36:26.364Z,11.13
2018-10-12T19:38:53.787Z,11.50
2018-10-12T19:41:21.313Z,11.10
2018-10-12T19:43:48.951Z,10.13
2018-10-12T19:46:16.573Z,9.33
2018-10-12T19:48:44.482Z,12.70
2018-10-12T19:51:12.083Z,11.33
2018-10-12T19:53:39.951Z,8.20
2018-10-12T19:56:07.683Z,8.03
2018-10-12T19:58:35.237Z,8.77
2018-10-12T20:01:02.658Z,8.00
2018-10-12T20:03:29.968Z,7.63
2018-10-12T20:05:57.499Z,10.40
2018-10-12T20:08:24.889Z,12.87
2018-10-12T20:10:52.274Z,8.90
2018-10-12T20:13:19.666Z,8.93
2018-10-12T20:15:47.133Z,8.57
2018-10-12T20:18:14.549Z,10.70
2018-10-12T20:20:41.844Z,9.20
2018-10-12T20:23:09.202Z,10.77
2018-10-12T20:25:36.622Z,8.80
2018-10-12T20:28:04.349Z,11.10
2018-10-12T20:30:31.806Z,10.00
2018-10-12T20:32:59.123Z,11.53
2018-10-12T20:35:26.482Z,10.27
2018-10-12T20:37:53.826Z,8.90
2018-10-12T20:40:21.186Z,9.80
2018-10-12T20:42:48.522Z,8.60
2018-10-12T20:45:15.959Z,10.10
2018-10-12T20:47:44.193Z,8.37
2018-10-12T20:50:11.669Z,8.73
2018-10-12T20:52:39.050Z,8.27
2018-10-12T20:55:06.508Z,7.83
2018-10-12T20:57:34.259Z,7.10
2018-10-12T21:00:01.580Z,9.10
2018-10-12T21:02:28.956Z,11.30
2018-10-12T21:04:56.536Z,8.83
2018-10-12T21:07:23.864Z,8.97
2018-10-12T21:09:51.210Z,10.33
2018-10-12T21:12:18.581Z,7.03
2018-10-12T21:14:45.943Z,8.97
2018-10-12T21:17:13.403Z,7.47
2018-10-12T21:19:40.816Z,6.77
2018-10-12T21:22:08.152Z,8.13
2018-10-12T21:24:35.542Z,8.07
2018-10-12T21:27:02.896Z,10.07
2018-10-12T21:29:30.339Z,8.40
2018-10-12T21:31:57.791Z,6.87
2018-10-12T21:34:25.202Z,10.87
2018-10-12T21:36:52.496Z,6.80
2018-10-12T21:39:19.805Z,9.23
2018-10-12T21:41:47.126Z,7.37
2018-10-12T21:44:14.659Z,7.83
2018-10-12T21:46:42.042Z,8.37
2018-10-12T21:49:09.307Z,9.50
2018-10-12T21:51:36.647Z,7.93
2018-10-12T21:54:04.000Z,8.43
2018-10-12T21:56:31.329Z,7.00
2018-10-12T21:58:58.809Z,9.67
2018-10-12T22:01:26.697Z,8.00
2018-10-12T22:03:54.019Z,11.40
2018-10-12T22:06:21.801Z,8.70
2018-10-12T22:08:57.453Z,8.93
2018-10-12T22:11:24.798Z,8.00
2018-10-12T22:13:52.220Z,9.77
2018-10-12T22:16:19.567Z,9.97
2018-10-12T22:18:47.277Z,9.27
2018-10-12T22:21:14.672Z,10.93
2018-10-12T22:23:42.074Z,11.20
2018-10-12T22:26:09.472Z,11.43
2018-10-12T22:28:37.954Z,10.97
2018-10-12T22:31:05.288Z,10.90
2018-10-12T22:33:32.606Z,11.63
2018-10-12T22:35:59.982Z,11.10
2018-10-12T22:38:28.395Z,13.27
2018-10-12T22:40:55.730Z,13.77
2018-10-12T22:43:25.632Z,11.70
2018-10-12T22:45:52.937Z,10.90
2018-10-12T22:48:20.453Z,12.53
2018-10-12T22:50:47.939Z,11.60
2018-10-12T22:53:17.047Z,13.17
2018-10-12T22:55:46.922Z,17.47
2018-10-12T22:58:15.497Z,15.03
2018-10-12T23:00:42.965Z,15.57
2018-10-12T23:03:10.430Z,15.30
2018-10-12T23:05:37.881Z,15.10
2018-10-12T23:08:05.630Z,17.13
2018-10-12T23:10:33.148Z,15.50
2018-10-12T23:13:00.621Z,16.43
2018-10-12T23:15:28.033Z,20.37
2018-10-12T23:17:55.462Z,20.10
2018-10-12T23:20:22.905Z,18.83
2018-10-12T23:22:50.371Z,20.37
2018-10-12T23:25:17.826Z,16.50
2018-10-12T23:27:45.207Z,15.97
2018-10-12T23:30:12.639Z,13.77
2018-10-12T23:32:40.023Z,12.20
2018-10-12T23:35:07.469Z,13.23
2018-10-12T23:37:34.918Z,11.70
2018-10-12T23:40:02.294Z,10.63
2018-10-12T23:42:29.838Z,11.00
2018-10-12T23:44:57.210Z,11.00
2018-10-12T23:47:24.680Z,14.33
2018-10-12T23:49:52.329Z,14.00
2018-10-12T23:52:19.697Z,11.67
2018-10-12T23:54:47.359Z,10.37
2018-10-12T23:57:14.828Z,10.73
2018-10-12T23:59:42.304Z,12.33
